Time;durP1;ratioP1;P1;durP2;ratioP2;P2;SDS_P1;SDS_P2;PMS_P1;PMS_P2;Temp;Humidity;BMP_temperature;BMP_pressure;BME280_temperature;BME280_humidity;BME280_pressure;Samples;Min_cycle;Max_cycle;Signal;HPM_P1;HPM_P2
2023/03/04 00:02:00;;;;;;;36.95;24.55;;;;;;;4.89;100.00;93095.16;5071507;28;20044;-72
2023/03/04 00:04:26;;;;;;;35.38;23.10;;;;;;;4.67;100.00;93084.91;5072033;28;20118;-72
2023/03/04 00:06:53;;;;;;;35.83;24.33;;;;;;;4.62;100.00;93086.38;5071824;28;20436;-72
2023/03/04 00:09:20;;;;;;;42.75;28.10;;;;;;;4.16;100.00;93033.94;5066862;28;20045;-72
2023/03/04 00:11:48;;;;;;;43.90;26.95;;;;;;;4.54;100.00;93084.75;5069524;28;20076;-72
2023/03/04 00:14:15;;;;;;;44.17;27.42;;;;;;;4.53;100.00;93081.41;5072015;28;20113;-72
2023/03/04 00:16:42;;;;;;;48.05;28.50;;;;;;;4.53;100.00;93078.06;5071785;28;20048;-72
2023/03/04 00:19:10;;;;;;;53.85;30.48;;;;;;;4.40;100.00;93084.53;5071978;28;20040;-74
2023/03/04 00:21:37;;;;;;;50.22;30.20;;;;;;;4.35;100.00;93086.06;5071453;28;20565;-73
2023/03/04 00:24:03;;;;;;;46.60;28.75;;;;;;;4.35;100.00;93065.72;5071701;28;21157;-71
2023/03/04 00:26:30;;;;;;;47.53;30.73;;;;;;;4.37;100.00;93074.75;5071791;28;20478;-71
2023/03/04 00:28:58;;;;;;;51.28;31.42;;;;;;;4.37;100.00;93069.66;5071335;28;20063;-71
2023/03/04 00:31:25;;;;;;;50.53;31.63;;;;;;;4.35;100.00;93066.47;5071628;28;20045;-70
2023/03/04 00:33:52;;;;;;;45.90;30.00;;;;;;;4.44;100.00;93081.66;5071402;28;20066;-71
2023/03/04 00:36:19;;;;;;;48.78;30.80;;;;;;;4.47;100.00;93079.56;5071161;28;20076;-70
2023/03/04 00:38:45;;;;;;;49.60;31.15;;;;;;;4.48;100.00;93075.25;5070942;28;20052;-70
2023/03/04 00:41:12;;;;;;;47.35;30.02;;;;;;;4.51;100.00;93074.91;5071198;28;20851;-70
2023/03/04 00:43:39;;;;;;;49.15;31.60;;;;;;;4.52;100.00;93062.03;5071448;28;20036;-70
2023/03/04 00:46:07;;;;;;;47.95;31.17;;;;;;;4.63;100.00;93070.94;5071349;28;20072;-70
2023/03/04 00:48:34;;;;;;;44.70;30.02;;;;;;;4.67;100.00;93067.09;5071343;28;20053;-70
2023/03/04 00:51:00;;;;;;;42.53;28.55;;;;;;;4.71;100.00;93071.84;5071077;28;20072;-70
2023/03/04 00:53:27;;;;;;;42.92;28.13;;;;;;;4.74;100.00;93067.19;5071038;28;20070;-72
2023/03/04 00:55:54;;;;;;;44.97;27.70;;;;;;;4.76;100.00;93064.44;5071335;28;20589;-71
2023/03/04 00:58:20;;;;;;;42.30;26.45;;;;;;;4.71;100.00;93064.97;5065998;28;20044;-71
2023/03/04 01:00:47;;;;;;;42.20;26.17;;;;;;;4.75;100.00;93061.13;5071066;28;20087;-70
2023/03/04 01:03:16;;;;;;;40.70;25.98;;;;;;;4.76;100.00;93067.00;5071211;28;20082;-73
2023/03/04 01:05:43;;;;;;;42.85;26.02;;;;;;;4.74;100.00;93059.56;5071001;28;20098;-73
2023/03/04 01:08:09;;;;;;;43.47;26.52;;;;;;;4.70;100.00;93053.22;5070394;28;20044;-73
2023/03/04 01:10:36;;;;;;;40.38;25.88;;;;;;;4.77;100.00;93059.19;5070597;28;20078;-73
2023/03/04 01:13:03;;;;;;;40.50;25.92;;;;;;;4.80;100.00;93063.94;5070627;28;20086;-73
2023/03/04 01:15:29;;;;;;;39.20;25.60;;;;;;;4.84;100.00;93058.47;5071011;28;20048;-74
2023/03/04 01:17:56;;;;;;;35.30;22.75;;;;;;;4.82;100.00;93061.22;5070580;28;20086;-73
2023/03/04 01:20:24;;;;;;;35.28;23.50;;;;;;;4.86;100.00;93052.25;5070482;28;20518;-73
2023/03/04 01:22:51;;;;;;;31.77;20.40;;;;;;;4.85;100.00;93060.84;5070759;28;20122;-73
2023/03/04 01:25:18;;;;;;;35.10;21.27;;;;;;;4.85;100.00;93052.44;5070702;28;20145;-73
2023/03/04 01:27:45;;;;;;;35.17;22.83;;;;;;;4.82;100.00;93048.50;5070577;28;20098;-70
2023/03/04 01:30:12;;;;;;;39.17;26.33;;;;;;;4.81;100.00;93047.69;5070408;28;20072;-71
2023/03/04 01:32:39;;;;;;;36.85;23.67;;;;;;;4.76;100.00;93042.34;5070448;28;20125;-71
2023/03/04 01:35:06;;;;;;;36.60;24.65;;;;;;;4.79;100.00;93044.53;5070251;28;20528;-71
2023/03/04 01:37:35;;;;;;;37.70;24.15;;;;;;;4.80;100.00;93041.03;5070414;28;20558;-70
2023/03/04 01:40:01;;;;;;;39.35;25.30;;;;;;;4.80;100.00;93046.13;5070556;28;20427;-72
2023/03/04 01:42:31;;;;;;;36.22;24.98;;;;;;;4.84;100.00;93040.66;5070450;28;20048;-71
2023/03/04 01:44:58;;;;;;;36.72;24.48;;;;;;;4.86;100.00;93042.06;5070293;28;20041;-71
2023/03/04 01:47:29;;;;;;;38.25;24.35;;;;;;;4.87;100.00;93043.66;5070254;28;20463;-72
2023/03/04 01:49:58;;;;;;;43.42;27.95;;;;;;;4.90;100.00;93043.28;5070177;28;20040;-71
2023/03/04 01:52:27;;;;;;;50.22;29.88;;;;;;;4.87;100.00;93037.75;5069898;28;20496;-72
2023/03/04 01:54:55;;;;;;;51.95;31.38;;;;;;;4.84;100.00;93041.47;5070190;28;20048;-72
2023/03/04 01:57:24;;;;;;;43.40;27.75;;;;;;;4.79;100.00;93031.81;5069873;28;20076;-72
2023/03/04 02:00:17;;;;;;;43.17;28.17;;;;;;;4.88;100.00;93042.69;5070131;28;20041;-72
2023/03/04 02:02:44;;;;;;;44.90;28.38;;;;;;;4.83;100.00;93039.88;5069924;28;20071;-72
2023/03/04 02:05:11;;;;;;;34.97;21.95;;;;;;;4.82;100.00;93035.75;5070133;28;20070;-71
2023/03/04 02:07:38;;;;;;;29.02;19.95;;;;;;;4.75;100.00;93025.50;5069923;28;20040;-72
2023/03/04 02:10:08;;;;;;;27.85;17.95;;;;;;;4.81;100.00;93029.06;5069528;28;20041;-72
2023/03/04 02:12:34;;;;;;;28.27;17.58;;;;;;;4.61;100.00;92993.22;5069934;28;20045;-72
2023/03/04 02:15:01;;;;;;;25.13;17.00;;;;;;;4.74;100.00;93026.47;5069804;28;20547;-72
2023/03/04 02:17:29;;;;;;;27.83;17.55;;;;;;;4.73;100.00;93029.19;5070342;28;20075;-72
2023/03/04 02:20:03;;;;;;;28.65;20.45;;;;;;;4.71;100.00;93023.50;5043199;28;20500;-72
2023/03/04 02:22:29;;;;;;;40.60;25.73;;;;;;;4.70;100.00;93027.78;5070079;28;20044;-73
2023/03/04 02:25:01;;;;;;;48.10;30.33;;;;;;;4.68;100.00;93027.19;5070062;28;20052;-72
2023/03/04 02:27:29;;;;;;;42.10;25.88;;;;;;;4.63;100.00;93017.53;5069795;28;20079;-72
2023/03/04 02:29:56;;;;;;;41.08;28.05;;;;;;;4.70;100.00;93024.44;5070208;28;20114;-72
2023/03/04 02:32:22;;;;;;;41.17;27.08;;;;;;;4.69;100.00;93021.13;5056250;28;20041;-72
2023/03/04 02:34:50;;;;;;;43.55;27.65;;;;;;;4.68;100.00;93017.00;5069795;28;20516;-72
2023/03/04 02:37:20;;;;;;;36.80;23.70;;;;;;;4.74;100.00;93018.03;5056878;28;20796;-72
2023/03/04 02:39:49;;;;;;;38.40;24.90;;;;;;;4.75;100.00;93020.41;5069575;28;20051;-72
2023/03/04 02:42:17;;;;;;;31.90;20.92;;;;;;;4.66;100.00;93009.56;5069508;28;20528;-72
2023/03/04 02:44:48;;;;;;;33.33;23.55;;;;;;;4.59;100.00;93010.44;5069756;28;20119;-72
2023/03/04 02:47:16;;;;;;;32.88;21.63;;;;;;;4.52;100.00;93008.59;5069835;28;20062;-71
2023/03/04 02:49:43;;;;;;;32.65;22.38;;;;;;;4.34;100.00;92975.91;5068926;28;20051;-72
2023/03/04 02:52:13;;;;;;;31.65;21.88;;;;;;;4.47;100.00;92998.16;5069465;28;20520;-72
2023/03/04 02:54:40;;;;;;;31.25;21.38;;;;;;;4.56;100.00;93009.03;5069630;28;20044;-72
2023/03/04 02:57:10;;;;;;;29.15;20.67;;;;;;;4.55;100.00;93010.78;5069067;28;20525;-72
2023/03/04 02:59:37;;;;;;;29.33;19.77;;;;;;;4.57;100.00;93004.75;5056034;28;20049;-72
2023/03/04 03:02:07;;;;;;;33.83;20.95;;;;;;;4.48;100.00;92991.31;5069295;28;20052;-71
2023/03/04 03:04:34;;;;;;;33.55;23.10;;;;;;;4.61;100.00;93011.03;5069124;28;20080;-72
2023/03/04 03:07:01;;;;;;;40.28;27.10;;;;;;;4.55;100.00;93002.38;5069429;28;20052;-72
2023/03/04 03:09:28;;;;;;;42.58;26.27;;;;;;;4.56;100.00;93009.03;5069234;28;20040;-72
2023/03/04 03:11:54;;;;;;;38.58;25.38;;;;;;;4.55;100.00;93003.16;5069582;28;20072;-73
2023/03/04 03:14:21;;;;;;;39.72;24.92;;;;;;;4.59;100.00;93000.25;5056235;28;20044;-72
2023/03/04 03:16:48;;;;;;;34.08;22.85;;;;;;;4.60;100.00;93002.63;5069228;28;20512;-72
2023/03/04 03:19:16;;;;;;;35.45;23.17;;;;;;;4.57;100.00;92997.13;5069030;28;20090;-72
2023/03/04 03:21:42;;;;;;;31.95;20.90;;;;;;;4.48;100.00;92998.94;5069348;28;20057;-72
2023/03/04 03:24:09;;;;;;;28.98;18.98;;;;;;;4.46;100.00;92996.59;5068786;28;20041;-72
2023/03/04 03:26:36;;;;;;;30.73;20.17;;;;;;;4.47;100.00;92997.38;5068752;28;20080;-72
2023/03/04 03:29:03;;;;;;;29.77;19.27;;;;;;;4.36;100.00;92989.22;5068965;28;20072;-72
2023/03/04 03:31:29;;;;;;;40.30;25.08;;;;;;;4.28;100.00;92994.41;5069238;28;20102;-72
2023/03/04 03:33:56;;;;;;;29.48;18.15;;;;;;;4.19;100.00;92991.16;5068878;28;20063;-72
2023/03/04 03:36:24;;;;;;;36.80;24.10;;;;;;;4.17;100.00;92984.69;5068898;28;20045;-72
2023/03/04 03:38:51;;;;;;;44.85;28.35;;;;;;;4.20;100.00;92980.03;5068636;28;20504;-71
2023/03/04 03:41:17;;;;;;;31.73;21.08;;;;;;;4.14;100.00;92978.19;5068901;28;20049;-71
2023/03/04 03:43:44;;;;;;;58.13;31.42;;;;;;;3.87;100.00;92978.63;5068706;28;20053;-71
2023/03/04 03:46:11;;;;;;;60.38;31.85;;;;;;;3.97;100.00;92977.56;5068404;28;20052;-72
2023/03/04 03:48:37;;;;;;;45.33;27.33;;;;;;;3.95;100.00;92982.84;5069171;28;20048;-71
2023/03/04 03:51:04;;;;;;;36.90;22.98;;;;;;;3.98;100.00;92969.78;5068698;28;20048;-72
2023/03/04 03:53:32;;;;;;;52.53;28.85;;;;;;;3.97;100.00;92975.81;5068899;28;20500;-72
2023/03/04 03:55:59;;;;;;;43.22;26.92;;;;;;;3.94;100.00;92978.69;5069074;28;20045;-71
2023/03/04 03:58:26;;;;;;;43.40;26.77;;;;;;;3.92;100.00;92973.00;5068303;28;20045;-72
2023/03/04 04:00:53;;;;;;;37.33;26.52;;;;;;;3.94;100.00;92976.16;5068413;28;20049;-72
2023/03/04 04:03:20;;;;;;;31.30;22.13;;;;;;;3.92;100.00;92978.09;5069087;28;20045;-72
2023/03/04 04:05:46;;;;;;;78.22;44.10;;;;;;;3.74;100.00;92976.69;5068132;28;20090;-72
2023/03/04 04:08:14;;;;;;;98.88;46.55;;;;;;;3.60;100.00;92980.78;5068675;28;20097;-72
2023/03/04 04:10:43;;;;;;;65.45;35.42;;;;;;;3.50;100.00;92964.19;5068579;28;20409;-72
2023/03/04 04:13:10;;;;;;;40.55;22.70;;;;;;;3.33;100.00;92939.72;5068814;28;20060;-71
2023/03/04 04:15:37;;;;;;;44.42;25.17;;;;;;;3.38;100.00;92954.44;5068517;28;20076;-71
2023/03/04 04:18:04;;;;;;;37.13;24.42;;;;;;;3.52;100.00;92978.28;5068059;28;20051;-71
2023/03/04 04:20:31;;;;;;;32.95;22.45;;;;;;;3.53;100.00;92979.91;5068568;28;20536;-71
2023/03/04 04:22:58;;;;;;;33.05;22.77;;;;;;;3.48;100.00;92979.63;5058880;28;20133;-72
2023/03/04 04:25:25;;;;;;;35.42;23.40;;;;;;;3.44;100.00;92975.84;5064669;28;20049;-71
2023/03/04 04:27:53;;;;;;;33.83;23.23;;;;;;;3.38;100.00;92972.22;5068476;28;20072;-71
2023/03/04 04:30:19;;;;;;;33.60;23.70;;;;;;;3.35;100.00;92975.13;5068196;28;20117;-71
2023/03/04 04:32:46;;;;;;;30.83;21.83;;;;;;;3.33;100.00;92975.28;5068323;28;20056;-71
2023/03/04 04:35:13;;;;;;;30.30;20.48;;;;;;;3.28;100.00;92975.00;5068512;28;20102;-71
2023/03/04 04:37:39;;;;;;;30.73;21.38;;;;;;;3.26;100.00;92984.53;5068404;28;20145;-71
2023/03/04 04:40:07;;;;;;;40.13;24.92;;;;;;;3.20;100.00;92977.59;5068277;28;20542;-71
2023/03/04 04:42:34;;;;;;;44.40;25.13;;;;;;;3.13;100.00;92976.69;5068396;28;20085;-71
2023/03/04 04:45:02;;;;;;;41.90;23.40;;;;;;;3.04;100.00;92979.28;5071019;28;20051;-71
2023/03/04 04:47:29;;;;;;;48.15;24.33;;;;;;;2.97;100.00;92975.88;5071087;28;20551;-71
2023/03/04 04:49:56;;;;;;;56.58;28.20;;;;;;;2.89;100.00;92981.78;5071626;28;20130;-71
2023/03/04 04:52:22;;;;;;;52.05;28.45;;;;;;;2.90;100.00;92980.81;5071639;28;20044;-71
2023/03/04 04:54:49;;;;;;;51.53;26.80;;;;;;;2.93;100.00;92983.00;5072031;28;20094;-71
2023/03/04 04:57:16;;;;;;;59.33;31.20;;;;;;;2.90;100.00;92977.47;5071003;28;20135;-71
2023/03/04 04:59:42;;;;;;;61.75;33.15;;;;;;;2.90;100.00;92978.28;5070848;28;20459;-71
2023/03/04 05:02:10;;;;;;;51.90;30.08;;;;;;;2.89;100.00;92975.91;5071253;28;20138;-71
2023/03/04 05:04:37;;;;;;;54.35;31.67;;;;;;;2.88;100.00;92984.47;5071603;28;20537;-72
2023/03/04 05:07:04;;;;;;;61.33;34.90;;;;;;;2.78;100.00;92987.22;5071456;28;20041;-72
2023/03/04 05:09:31;;;;;;;107.63;68.53;;;;;;;2.76;100.00;92991.66;5071362;28;20558;-71
2023/03/04 05:11:58;;;;;;;91.53;58.30;;;;;;;2.74;100.00;92996.91;5069405;28;20044;-72
2023/03/04 05:14:24;;;;;;;59.67;40.05;;;;;;;2.79;100.00;92992.13;5070494;28;20048;-72
2023/03/04 05:16:52;;;;;;;58.17;39.47;;;;;;;2.82;100.00;92988.44;5071172;28;20045;-71
2023/03/04 05:19:20;;;;;;;61.53;40.08;;;;;;;2.87;100.00;92993.03;5071479;28;20047;-71
2023/03/04 05:21:47;;;;;;;46.30;30.80;;;;;;;2.83;100.00;92995.13;5070413;28;20053;-71
2023/03/04 05:24:13;;;;;;;62.70;35.25;;;;;;;2.74;100.00;92993.59;5070981;28;20090;-71
2023/03/04 05:26:40;;;;;;;83.13;40.13;;;;;;;2.65;100.00;92997.91;5060228;28;20126;-71
2023/03/04 05:29:07;;;;;;;36.92;21.67;;;;;;;2.47;100.00;93006.56;5054025;28;20041;-71
2023/03/04 05:31:33;;;;;;;29.55;19.35;;;;;;;2.22;100.00;93016.00;5055605;28;20497;-71
2023/03/04 05:34:00;;;;;;;41.90;25.85;;;;;;;2.03;100.00;93007.78;5058091;28;20040;-70
2023/03/04 05:36:28;;;;;;;61.15;36.20;;;;;;;2.05;100.00;93005.91;5057831;28;20516;-70
2023/03/04 05:38:55;;;;;;;64.05;36.90;;;;;;;2.03;100.00;93015.38;5070622;28;20497;-70
2023/03/04 05:41:21;;;;;;;59.55;37.70;;;;;;;1.89;100.00;93011.78;5070369;28;20780;-71
2023/03/04 05:43:48;;;;;;;45.17;28.35;;;;;;;1.81;100.00;93016.88;5069585;28;20048;-71
2023/03/04 05:46:16;;;;;;;32.67;22.10;;;;;;;1.78;100.00;93012.09;5070749;28;20041;-71
2023/03/04 05:48:44;;;;;;;27.20;18.75;;;;;;;1.81;100.00;93014.34;5070563;28;20053;-71
2023/03/04 05:51:11;;;;;;;28.65;19.67;;;;;;;1.69;100.00;92980.94;5070196;28;20048;-71
2023/03/04 05:53:41;;;;;;;26.92;20.17;;;;;;;1.89;100.00;93004.16;5070399;28;20044;-72
2023/03/04 05:56:09;;;;;;;24.42;17.73;;;;;;;2.05;100.00;93012.69;5069836;28;20488;-71
2023/03/04 05:58:36;;;;;;;24.77;16.00;;;;;;;1.98;100.00;92997.34;5045458;28;20133;-71
2023/03/04 06:01:02;;;;;;;29.75;17.80;;;;;;;2.13;100.00;93016.00;5069484;28;20113;-71
2023/03/04 06:03:29;;;;;;;29.23;18.70;;;;;;;2.31;100.00;93017.53;5070232;28;20094;-71
2023/03/04 06:05:56;;;;;;;27.65;17.98;;;;;;;2.43;100.00;93020.50;5070585;28;20048;-71
2023/03/04 06:08:23;;;;;;;24.48;16.23;;;;;;;2.61;100.00;93016.94;5069876;28;20094;-72
2023/03/04 06:10:53;;;;;;;24.77;15.60;;;;;;;2.59;100.00;93021.41;5069606;28;20043;-72
2023/03/04 06:13:21;;;;;;;31.23;18.73;;;;;;;2.63;100.00;93020.09;5069651;28;20066;-72
2023/03/04 06:15:48;;;;;;;23.58;14.43;;;;;;;2.68;100.00;93022.94;5070264;28;20390;-72
2023/03/04 06:18:14;;;;;;;26.58;15.50;;;;;;;2.84;100.00;93017.00;5069893;28;20098;-72
2023/03/04 06:20:41;;;;;;;23.73;13.55;;;;;;;2.95;100.00;93020.91;5069947;28;20063;-72
2023/03/04 06:23:08;;;;;;;21.85;13.32;;;;;;;3.03;100.00;93022.59;5069484;28;20532;-71
2023/03/04 06:25:35;;;;;;;24.05;14.38;;;;;;;3.19;100.00;93031.84;5069736;28;20080;-71
2023/03/04 06:28:03;;;;;;;24.08;13.73;;;;;;;3.43;100.00;93033.44;5069996;28;20052;-71
2023/03/04 06:30:30;;;;;;;23.75;13.48;;;;;;;3.60;100.00;93028.22;5069832;28;20045;-71
2023/03/04 06:32:57;;;;;;;31.60;18.40;;;;;;;3.69;100.00;93039.13;5069856;28;20505;-71
2023/03/04 06:35:23;;;;;;;28.75;17.60;;;;;;;3.84;100.00;93044.25;5067329;28;20106;-72
2023/03/04 06:37:50;;;;;;;35.85;24.23;;;;;;;3.97;100.00;93041.91;5069768;28;20052;-72
2023/03/04 06:40:17;;;;;;;46.53;31.63;;;;;;;4.10;100.00;93045.59;5063244;28;20053;-71
2023/03/04 06:42:43;;;;;;;49.20;33.55;;;;;;;4.19;100.00;93047.09;5069400;28;20063;-71
2023/03/04 06:45:12;;;;;;;46.22;29.52;;;;;;;4.28;100.00;93047.81;5069436;28;20094;-72
2023/03/04 06:47:39;;;;;;;52.35;34.13;;;;;;;4.30;100.00;93040.78;5055284;28;20456;-72
2023/03/04 06:50:06;;;;;;;48.40;32.20;;;;;;;4.46;100.00;93051.75;5064615;28;20519;-72
2023/03/04 06:52:36;;;;;;;68.53;50.67;;;;;;;4.55;100.00;93051.47;5068309;28;20126;-72
2023/03/04 06:55:03;;;;;;;56.63;37.60;;;;;;;4.69;100.00;93059.28;5068853;28;20123;-72
2023/03/04 06:57:30;;;;;;;63.35;41.72;;;;;;;4.87;100.00;93058.13;5069295;28;20049;-72
2023/03/04 06:59:57;;;;;;;54.63;35.80;;;;;;;4.95;100.00;93069.00;5068977;28;20037;-72
2023/03/04 07:02:25;;;;;;;50.45;33.05;;;;;;;5.10;100.00;93067.38;5069097;28;20044;-71
2023/03/04 07:04:52;;;;;;;46.05;29.30;;;;;;;5.19;100.00;93067.09;5069428;28;20044;-71
2023/03/04 07:07:18;;;;;;;45.30;29.58;;;;;;;5.28;100.00;93065.22;5069290;28;20110;-71
2023/03/04 07:09:45;;;;;;;51.65;36.47;;;;;;;5.32;100.00;93063.13;5069123;28;20049;-72
2023/03/04 07:12:12;;;;;;;29.05;18.05;;;;;;;5.35;100.00;93062.75;5069447;28;20044;-72
2023/03/04 07:14:38;;;;;;;32.55;19.58;;;;;;;5.40;100.00;93063.00;5068751;28;20048;-72
2023/03/04 07:17:05;;;;;;;31.05;20.67;;;;;;;5.45;100.00;93067.53;5069280;28;20437;-72
2023/03/04 07:19:33;;;;;;;35.05;21.08;;;;;;;5.50;100.00;93069.56;5068998;28;20052;-71
2023/03/04 07:22:00;;;;;;;40.88;27.42;;;;;;;5.65;100.00;93079.69;5069252;28;20145;-72
2023/03/04 07:24:27;;;;;;;27.00;16.67;;;;;;;5.72;100.00;93072.88;5068972;28;20557;-72
2023/03/04 07:26:53;;;;;;;27.33;16.77;;;;;;;5.88;100.00;93071.88;5069046;28;20048;-72
2023/03/04 07:29:20;;;;;;;29.02;16.80;;;;;;;6.05;100.00;93076.69;5069248;28;20041;-72
2023/03/04 07:31:47;;;;;;;26.10;15.95;;;;;;;6.16;100.00;93078.78;5068872;28;20455;-72
2023/03/04 07:34:14;;;;;;;30.55;16.23;;;;;;;6.10;100.00;93087.13;5061110;28;20045;-72
2023/03/04 07:36:43;;;;;;;29.85;17.20;;;;;;;6.19;100.00;93085.22;5064648;28;20045;-72
2023/03/04 07:39:12;;;;;;;28.50;16.88;;;;;;;6.30;100.00;93077.09;5066429;28;20102;-72
2023/03/04 07:41:40;;;;;;;23.15;14.77;;;;;;;6.25;100.00;93080.19;5065405;28;20408;-72
2023/03/04 07:44:07;;;;;;;30.48;18.05;;;;;;;6.39;100.00;93083.63;5054960;28;20049;-73
2023/03/04 07:46:34;;;;;;;32.30;17.88;;;;;;;6.32;100.00;93049.63;5069152;28;20049;-72
2023/03/04 07:49:01;;;;;;;27.77;16.30;;;;;;;6.58;100.00;93078.84;5068534;28;20130;-72
2023/03/04 07:51:28;;;;;;;29.02;16.85;;;;;;;6.68;100.00;93079.25;5059199;28;20096;-72
2023/03/04 07:53:58;;;;;;;23.80;16.08;;;;;;;6.74;100.00;93066.72;5064782;28;20040;-72
2023/03/04 07:56:27;;;;;;;23.77;14.10;;;;;;;6.75;100.00;93079.31;5068947;28;20076;-72
2023/03/04 07:58:55;;;;;;;23.60;13.85;;;;;;;6.80;100.00;93079.53;5068494;28;20044;-72
2023/03/04 08:01:24;;;;;;;18.88;11.63;;;;;;;6.87;100.00;93081.31;5068782;28;20052;-71
2023/03/04 08:03:51;;;;;;;21.35;11.23;;;;;;;6.96;100.00;93082.75;5068449;28;20570;-71
2023/03/04 08:06:20;;;;;;;20.23;10.52;;;;;;;6.88;100.00;93086.25;5068328;28;20094;-71
2023/03/04 08:08:47;;;;;;;23.10;10.50;;;;;;;6.53;100.00;93087.03;5064124;28;20711;-72
2023/03/04 08:11:17;;;;;;;21.63;11.68;;;;;;;6.50;100.00;93077.22;5066213;28;20049;-72
2023/03/04 08:13:44;;;;;;;17.80;12.43;;;;;;;6.49;100.00;93083.28;5054708;28;20094;-71
2023/03/04 08:16:14;;;;;;;22.95;12.88;;;;;;;6.55;100.00;93074.09;5068615;28;20041;-71
2023/03/04 08:18:41;;;;;;;25.02;12.70;;;;;;;6.66;100.00;93078.66;5069107;28;20052;-72
2023/03/04 08:21:10;;;;;;;23.35;13.02;;;;;;;6.89;100.00;93076.81;5072307;28;20049;-71
2023/03/04 08:23:36;;;;;;;20.83;12.32;;;;;;;6.89;100.00;93071.72;5072294;28;20074;-71
2023/03/04 08:26:07;;;;;;;24.25;14.48;;;;;;;7.14;100.00;93071.22;5071632;28;20052;-72
2023/03/04 08:28:35;;;;;;;20.90;10.65;;;;;;;6.98;100.00;93080.00;5064756;28;20052;-72
2023/03/04 08:31:02;;;;;;;21.67;11.43;;;;;;;7.24;100.00;93079.31;5072008;28;20186;-71
2023/03/04 08:33:28;;;;;;;22.63;12.60;;;;;;;7.39;100.00;93065.56;5072103;28;20048;-72
2023/03/04 08:35:55;;;;;;;20.73;11.45;;;;;;;7.18;100.00;93082.63;5060791;28;20041;-72
2023/03/04 08:38:22;;;;;;;18.65;12.38;;;;;;;7.31;100.00;93081.88;5067782;28;20827;-72
2023/03/04 08:40:53;;;;;;;22.80;13.25;;;;;;;7.21;100.00;93070.25;5065817;28;20157;-71
2023/03/04 08:43:19;;;;;;;26.67;14.40;;;;;;;6.88;100.00;93070.91;5071702;28;20408;-72
2023/03/04 08:45:48;;;;;;;24.20;13.95;;;;;;;6.94;100.00;93062.50;5072002;28;20134;-71
2023/03/04 08:48:16;;;;;;;30.35;14.55;;;;;;;7.31;100.00;93044.34;5072050;28;20051;-72
2023/03/04 08:50:44;;;;;;;22.70;13.27;;;;;;;7.44;100.00;93017.22;5071788;28;20056;-72
2023/03/04 08:53:11;;;;;;;15.70;9.45;;;;;;;7.60;100.00;93062.09;5071863;28;20076;-72
2023/03/04 08:55:38;;;;;;;26.42;14.32;;;;;;;7.75;100.00;93061.91;5071936;28;20133;-72
2023/03/04 08:58:05;;;;;;;16.85;10.82;;;;;;;7.66;100.00;93066.41;5071070;28;20044;-72
2023/03/04 09:00:32;;;;;;;20.67;11.00;;;;;;;7.62;100.00;93067.78;5064361;28;20414;-72
2023/03/04 09:03:02;;;;;;;23.58;12.48;;;;;;;7.49;100.00;93071.09;5052207;28;20053;-71
2023/03/04 09:05:29;;;;;;;18.73;10.50;;;;;;;7.48;100.00;93064.41;5071384;28;20044;-72
2023/03/04 09:07:56;;;;;;;16.73;10.52;;;;;;;7.79;100.00;93047.75;5071256;28;20049;-71
2023/03/04 09:10:23;;;;;;;16.27;9.73;;;;;;;7.78;100.00;93056.38;5070901;28;20040;-72
2023/03/04 09:12:50;;;;;;;18.27;9.00;;;;;;;7.64;100.00;93057.38;5071299;28;20080;-72
2023/03/04 09:15:17;;;;;;;13.65;7.45;;;;;;;7.47;100.00;93055.97;5071056;28;20090;-72
2023/03/04 09:17:44;;;;;;;18.38;8.50;;;;;;;7.73;100.00;93051.88;5070588;28;20129;-71
2023/03/04 09:20:13;;;;;;;13.70;8.20;;;;;;;7.85;100.00;93057.19;5070798;28;20586;-72
2023/03/04 09:22:41;;;;;;;14.73;8.32;;;;;;;7.65;100.00;93026.50;5070991;28;20052;-72
2023/03/04 09:25:13;;;;;;;11.30;7.22;;;;;;;7.75;100.00;93052.47;5070802;28;20040;-72
2023/03/04 09:27:40;;;;;;;19.58;8.05;;;;;;;7.48;100.00;93042.22;5058630;28;20927;-72
2023/03/04 09:30:08;;;;;;;16.65;8.82;;;;;;;7.55;100.00;93037.09;5069757;28;20481;-72
2023/03/04 09:32:35;;;;;;;25.75;12.52;;;;;;;7.88;100.00;93033.78;5071497;28;20094;-72
2023/03/04 09:35:02;;;;;;;21.15;9.88;;;;;;;8.04;100.00;93033.59;5068511;28;20110;-72
2023/03/04 09:37:30;;;;;;;19.65;9.23;;;;;;;8.04;100.00;93031.81;5070058;28;20113;-72
2023/03/04 09:39:56;;;;;;;17.80;9.20;;;;;;;8.42;100.00;93032.91;5070032;28;20045;-72
2023/03/04 09:42:27;;;;;;;24.77;8.30;;;;;;;8.42;100.00;93035.47;5070676;28;20052;-72
2023/03/04 09:44:54;;;;;;;21.08;9.43;;;;;;;8.48;100.00;93026.22;5067973;28;20072;-72
2023/03/04 09:47:23;;;;;;;24.42;9.77;;;;;;;8.78;100.00;93025.75;5066833;28;20045;-72
2023/03/04 09:49:55;;;;;;;21.55;9.15;;;;;;;8.86;100.00;93006.81;5066797;28;20458;-72
2023/03/04 09:52:37;;;;;;;25.13;11.68;;;;;;;9.21;100.00;93009.81;5068821;28;20430;-71
2023/03/04 09:55:13;;;;;;;24.38;12.57;;;;;;;9.49;100.00;93025.81;5063515;28;20040;-72
2023/03/04 09:57:47;;;;;;;18.88;10.65;;;;;;;9.62;100.00;93012.13;5070596;28;20496;-72
2023/03/04 10:00:18;;;;;;;15.23;10.18;;;;;;;9.77;100.00;93004.13;5064701;28;20091;-72
2023/03/04 10:03:06;;;;;;;15.95;8.73;;;;;;;9.93;100.00;93002.81;5063219;28;20052;-72
2023/03/04 10:05:36;;;;;;;19.67;9.10;;;;;;;10.08;100.00;93005.03;5070517;28;20080;-72
2023/03/04 10:08:19;;;;;;;22.65;14.38;;;;;;;10.15;100.00;93002.44;5069643;28;20052;-72
2023/03/04 10:10:48;;;;;;;15.00;7.85;;;;;;;10.22;100.00;92999.78;5069153;28;20554;-72
2023/03/04 10:13:26;;;;;;;16.52;10.45;;;;;;;10.31;100.00;92987.47;5069488;28;21551;-72
2023/03/04 10:15:59;;;;;;;15.10;7.72;;;;;;;10.33;93.44;92988.03;5069280;28;20112;-73
2023/03/04 10:18:34;;;;;;;17.23;9.70;;;;;;;10.50;100.00;92980.56;5069165;28;20107;-72
2023/03/04 10:21:10;;;;;;;15.55;9.98;;;;;;;10.50;97.23;92978.78;5069711;28;20055;-72
2023/03/04 10:24:02;;;;;;;18.48;9.98;;;;;;;10.65;99.50;92983.56;5065255;28;20045;-73
2023/03/04 10:26:38;;;;;;;16.27;8.98;;;;;;;10.73;97.65;92977.34;5069674;28;20045;-73
2023/03/04 10:29:09;;;;;;;29.45;18.80;;;;;;;10.78;98.98;92969.78;5069343;28;20056;-72
2023/03/04 10:31:37;;;;;;;22.23;11.93;;;;;;;10.73;99.14;92969.63;5069219;28;20047;-72
2023/03/04 10:34:04;;;;;;;14.93;9.27;;;;;;;10.59;98.03;92955.41;5069719;28;20040;-72
2023/03/04 10:36:45;;;;;;;37.45;19.08;;;;;;;10.75;96.95;92957.38;5066310;28;20114;-72
2023/03/04 10:39:19;;;;;;;18.85;9.70;;;;;;;10.85;98.63;92956.06;5069271;28;20102;-72
2023/03/04 10:41:54;;;;;;;39.97;20.77;;;;;;;10.98;97.89;92945.63;5045146;28;20044;-72
2023/03/04 10:44:21;;;;;;;14.50;9.03;;;;;;;11.08;96.11;92947.66;5069410;28;20468;-72
2023/03/04 10:46:49;;;;;;;25.20;12.57;;;;;;;11.03;96.17;92942.41;5069888;28;20048;-72
2023/03/04 10:49:18;;;;;;;20.02;10.05;;;;;;;10.79;95.15;92932.03;5069529;28;20052;-72
2023/03/04 10:51:47;;;;;;;15.77;7.88;;;;;;;10.85;91.69;92935.50;5069689;28;20447;-71
2023/03/04 10:54:27;;;;;;;26.02;12.38;;;;;;;10.72;95.15;92910.75;5069265;28;20044;-72
2023/03/04 10:56:58;;;;;;;15.98;8.82;;;;;;;10.90;92.81;92923.59;5062183;28;20489;-72
2023/03/04 10:59:34;;;;;;;15.98;8.05;;;;;;;10.57;95.95;92901.69;5068940;28;20153;-72
2023/03/04 11:02:02;;;;;;;22.83;11.23;;;;;;;10.73;97.08;92925.97;5069392;28;20053;-72
2023/03/04 11:04:34;;;;;;;16.52;8.93;;;;;;;10.54;94.48;92889.25;5065824;28;20107;-72
2023/03/04 11:07:00;;;;;;;39.00;20.73;;;;;;;10.73;96.39;92904.66;5066912;28;20094;-72
2023/03/04 11:09:31;;;;;;;28.58;14.57;;;;;;;10.79;100.00;92912.25;5068123;28;20570;-72
2023/03/04 11:12:00;;;;;;;23.75;12.77;;;;;;;10.73;99.16;92908.00;5069055;28;20048;-71
2023/03/04 11:14:30;;;;;;;31.60;18.65;;;;;;;10.81;100.00;92899.19;5068706;28;20090;-71
2023/03/04 11:16:59;;;;;;;74.20;40.58;;;;;;;10.84;99.83;92896.19;5069430;28;20044;-72
2023/03/04 11:19:31;;;;;;;23.75;12.88;;;;;;;10.65;100.00;92898.03;5068506;28;20097;-72
2023/03/04 11:22:00;;;;;;;33.10;21.08;;;;;;;10.68;100.00;92885.53;5068298;28;20045;-71